Harry B. Settoon — WDE5658 — position and weather

sailwx.info

Track history (hours):
 
Tides and Currents Weather Stations Pressure Air Temp Water Temp Dewpoint Dewpoint Depression Visibility Wind Speed Wind Dir Waves Ship Positions

Harry B. Settoon

Owner: Settoon Towing, LLC, Houma, LA. More information available from US FCC via Universal Licensing System and Coast Guard Vessel Documentation Center.

Last reported at 2016-May-25 18:15 UTC. Time now 2016-May-26 04:42 UTC.
Position N 29°22' W 090°43'.

; draft 1.8 m.

Type: Tug. MMSI: 367369920.

Date/timePositionNaut miles runAvg speedWind from/ knotsBaromVisibWave heightAir tempDewpointWater temp
2016-May-25 18:15N 29°22' W 090°43'1 2.1
2016-May-25 17:33N 29°22' W 090°42'4 3.7
2016-May-25 16:28N 29°23' W 090°37'1 1.5
2016-May-25 15:33N 29°23' W 090°36'3 3.0
2016-May-25 14:29N 29°26' W 090°34'2 0.0
2016-May-23 18:24N 29°24' W 090°33'4 1.7
2016-May-23 16:11N 29°23' W 090°37'3 3.3
2016-May-23 15:11N 29°22' W 090°41'4 2.2
2016-May-23 13:33N 29°25' W 090°44'1 0.7
2016-May-23 12:33N 29°25' W 090°43'0 0.0
2016-May-23 11:33N 29°25' W 090°43'0 0.0
2016-May-23 10:33N 29°25' W 090°43'0 0.0
2016-May-23 09:33N 29°25' W 090°43'0 0.0
2016-May-23 08:33N 29°25' W 090°43'0 0.0
2016-May-23 07:33N 29°25' W 090°43'0 0.0
2016-May-23 06:33N 29°25' W 090°43'0 0.0
2016-May-23 05:33N 29°25' W 090°43'0 0.0
2016-May-23 04:33N 29°25' W 090°43'0 0.0
2016-May-23 03:31N 29°25' W 090°43'0 0.0
2016-May-23 02:33N 29°25' W 090°43'0 0.0
2016-May-23 01:33N 29°25' W 090°43'0 0.2
2016-May-23 00:33N 29°25' W 090°43'1 0.0
2016-May-21 17:28N 29°24' W 090°44'7 7.2
2016-May-21 16:33N 29°31' W 090°43'3 3.2
2016-May-21 15:33N 29°33' W 090°46'10 0.6
2016-May-20 23:06N 29°34' W 090°57'3 5.5
2016-May-20 22:33N 29°33' W 090°54'5 5.1
2016-May-20 21:33N 29°32' W 090°48'5 4.5
2016-May-20 20:33N 29°34' W 090°43'5 4.5
2016-May-20 19:33N 29°30' W 090°43'5 0.2
2016-May-19 15:29N 29°24' W 090°44'6 6.6
2016-May-19 14:33N 29°30' W 090°43'4 4.4
2016-May-19 13:33N 29°35' W 090°43'0 0.0
2016-May-19 12:33N 29°35' W 090°43'0 0.0
2016-May-19 11:33N 29°35' W 090°43'0 0.0
2016-May-19 10:33N 29°35' W 090°43'0 0.0
2016-May-19 09:33N 29°35' W 090°43'0 0.0
2016-May-19 08:33N 29°35' W 090°43'0 0.0
2016-May-19 07:33N 29°35' W 090°43'0 0.0
2016-May-19 06:33N 29°35' W 090°43'0 0.0
2016-May-19 05:33N 29°35' W 090°43'0 0.0
2016-May-19 04:33N 29°35' W 090°43'0 0.0
2016-May-19 03:33N 29°35' W 090°43'0 0.0
2016-May-19 02:33N 29°35' W 090°43'1 1.2
2016-May-19 01:33N 29°36' W 090°43'5 5.1
2016-May-19 00:33N 29°35' W 090°37'4 0.1
2016-May-17 20:04N 29°34' W 090°32'4 6.9
2016-May-17 19:33N 29°35' W 090°36'6 5.8
2016-May-17 18:33N 29°37' W 090°42'2 1.9
2016-May-17 17:33N 29°35' W 090°43'6 6.0
2016-May-17 16:33N 29°32' W 090°49'  
Track history (hours):
 
Tides and Currents Weather Stations Pressure Air Temp Water Temp Dewpoint Dewpoint Depression Visibility Wind Speed Wind Dir Waves Ship Positions

Harry B. Settoon

Owner: Settoon Towing, LLC, Houma, LA. More information available from US FCC via Universal Licensing System and Coast Guard Vessel Documentation Center.

Last reported at 2016-May-25 18:15 UTC. Time now 2016-May-26 04:42 UTC.
Position N 29°22' W 090°43'.

; draft 1.8 m.

Type: Tug. MMSI: 367369920.

Date/timePositionNaut miles runAvg speedWind from/ knotsBaromVisibWave heightAir tempDewpointWater temp
2016-May-25 18:15N 29°22' W 090°43'1 2.1
2016-May-25 17:33N 29°22' W 090°42'4 3.7
2016-May-25 16:28N 29°23' W 090°37'1 1.5
2016-May-25 15:33N 29°23' W 090°36'3 3.0
2016-May-25 14:29N 29°26' W 090°34'2 0.0
2016-May-23 18:24N 29°24' W 090°33'4 1.7
2016-May-23 16:11N 29°23' W 090°37'3 3.3
2016-May-23 15:11N 29°22' W 090°41'4 2.2
2016-May-23 13:33N 29°25' W 090°44'1 0.7
2016-May-23 12:33N 29°25' W 090°43'0 0.0
2016-May-23 11:33N 29°25' W 090°43'0 0.0
2016-May-23 10:33N 29°25' W 090°43'0 0.0
2016-May-23 09:33N 29°25' W 090°43'0 0.0
2016-May-23 08:33N 29°25' W 090°43'0 0.0
2016-May-23 07:33N 29°25' W 090°43'0 0.0
2016-May-23 06:33N 29°25' W 090°43'0 0.0
2016-May-23 05:33N 29°25' W 090°43'0 0.0
2016-May-23 04:33N 29°25' W 090°43'0 0.0
2016-May-23 03:31N 29°25' W 090°43'0 0.0
2016-May-23 02:33N 29°25' W 090°43'0 0.0
2016-May-23 01:33N 29°25' W 090°43'0 0.2
2016-May-23 00:33N 29°25' W 090°43'1 0.0
2016-May-21 17:28N 29°24' W 090°44'7 7.2
2016-May-21 16:33N 29°31' W 090°43'3 3.2
2016-May-21 15:33N 29°33' W 090°46'10 0.6
2016-May-20 23:06N 29°34' W 090°57'3 5.5
2016-May-20 22:33N 29°33' W 090°54'5 5.1
2016-May-20 21:33N 29°32' W 090°48'5 4.5
2016-May-20 20:33N 29°34' W 090°43'5 4.5
2016-May-20 19:33N 29°30' W 090°43'5 0.2
2016-May-19 15:29N 29°24' W 090°44'6 6.6
2016-May-19 14:33N 29°30' W 090°43'4 4.4
2016-May-19 13:33N 29°35' W 090°43'0 0.0
2016-May-19 12:33N 29°35' W 090°43'0 0.0
2016-May-19 11:33N 29°35' W 090°43'0 0.0
2016-May-19 10:33N 29°35' W 090°43'0 0.0
2016-May-19 09:33N 29°35' W 090°43'0 0.0
2016-May-19 08:33N 29°35' W 090°43'0 0.0
2016-May-19 07:33N 29°35' W 090°43'0 0.0
2016-May-19 06:33N 29°35' W 090°43'0 0.0
2016-May-19 05:33N 29°35' W 090°43'0 0.0
2016-May-19 04:33N 29°35' W 090°43'0 0.0
2016-May-19 03:33N 29°35' W 090°43'0 0.0
2016-May-19 02:33N 29°35' W 090°43'1 1.2
2016-May-19 01:33N 29°36' W 090°43'5 5.1
2016-May-19 00:33N 29°35' W 090°37'4 0.1
2016-May-17 20:04N 29°34' W 090°32'4 6.9
2016-May-17 19:33N 29°35' W 090°36'6 5.8
2016-May-17 18:33N 29°37' W 090°42'2 1.9
2016-May-17 17:33N 29°35' W 090°43'6 6.0
2016-May-17 16:33N 29°32' W 090°49'  

Dump ship's entire track history